createdAt,value
2023-03-29T00:00:30.610Z,2.08
2023-03-29T00:02:58.369Z,2.00
2023-03-29T00:05:25.742Z,1.85
2023-03-29T00:08:02.442Z,2.10
2023-03-29T00:10:30.199Z,1.52
2023-03-29T00:12:57.490Z,1.88
2023-03-29T00:15:24.703Z,1.23
2023-03-29T00:17:52.007Z,1.50
2023-03-29T00:20:19.303Z,1.20
2023-03-29T00:22:47.065Z,1.40
2023-03-29T00:25:14.907Z,1.10
2023-03-29T00:27:42.033Z,1.30
2023-03-29T00:30:10.389Z,1.10
2023-03-29T00:32:37.908Z,1.00
2023-03-29T00:35:06.430Z,1.20
2023-03-29T00:37:34.084Z,1.10
2023-03-29T00:40:01.599Z,1.20
2023-03-29T00:42:28.735Z,1.10
2023-03-29T00:45:02.853Z,1.20
2023-03-29T00:47:40.205Z,1.10
2023-03-29T00:50:18.796Z,0.90
2023-03-29T00:52:51.995Z,1.40
2023-03-29T00:55:23.156Z,1.00
2023-03-29T00:57:52.437Z,1.27
2023-03-29T01:00:22.456Z,1.27
2023-03-29T01:02:56.063Z,1.00
2023-03-29T01:05:35.532Z,1.25
2023-03-29T01:08:26.016Z,1.00
2023-03-29T01:11:03.199Z,1.33
2023-03-29T01:13:39.787Z,1.00
2023-03-29T01:16:09.655Z,0.98
2023-03-29T01:18:36.812Z,1.15
2023-03-29T01:21:25.524Z,1.15
2023-03-29T01:24:25.261Z,1.30
2023-03-29T01:27:15.084Z,0.90
2023-03-29T01:29:50.670Z,1.10
2023-03-29T01:32:46.743Z,1.05
2023-03-29T01:35:19.089Z,1.00
2023-03-29T01:37:59.087Z,0.90
2023-03-29T01:40:29.049Z,1.10
2023-03-29T01:43:06.508Z,1.00
2023-03-29T01:46:05.408Z,1.10
2023-03-29T01:48:56.981Z,1.00
2023-03-29T01:51:27.012Z,1.10
2023-03-29T01:54:20.881Z,1.10
2023-03-29T01:56:50.654Z,1.00
2023-03-29T01:59:22.978Z,1.10
2023-03-29T02:01:54.720Z,1.00
2023-03-29T02:04:30.303Z,1.27
2023-03-29T02:07:00.952Z,1.27
2023-03-29T02:09:30.528Z,1.13
2023-03-29T02:12:01.181Z,1.33
2023-03-29T02:14:29.661Z,1.00
2023-03-29T02:16:57.038Z,1.10
2023-03-29T02:19:26.170Z,1.00
2023-03-29T02:22:07.541Z,1.17
2023-03-29T02:24:37.351Z,1.13
2023-03-29T02:27:04.952Z,1.00
2023-03-29T02:29:32.218Z,0.88
2023-03-29T02:32:09.068Z,0.93
2023-03-29T02:34:47.976Z,0.90
2023-03-29T02:37:19.190Z,1.17
2023-03-29T02:39:50.004Z,0.90
2023-03-29T02:42:20.888Z,0.90
2023-03-29T02:44:51.694Z,1.00
2023-03-29T02:47:27.217Z,0.90
2023-03-29T02:49:54.445Z,0.90
2023-03-29T02:52:29.784Z,1.00
2023-03-29T02:55:00.634Z,1.27
2023-03-29T02:57:28.942Z,0.80
2023-03-29T02:59:57.769Z,0.93
2023-03-29T03:02:26.113Z,1.00
2023-03-29T03:04:53.784Z,1.00
2023-03-29T03:07:21.437Z,0.90
2023-03-29T03:09:49.201Z,0.90
2023-03-29T03:12:16.310Z,1.30
2023-03-29T03:14:43.475Z,1.02
2023-03-29T03:17:10.629Z,0.98
2023-03-29T03:19:38.614Z,1.23
2023-03-29T03:22:06.424Z,1.02
2023-03-29T03:24:33.845Z,1.42
2023-03-29T03:27:00.979Z,1.30
2023-03-29T03:29:28.687Z,0.98
2023-03-29T03:31:55.926Z,1.23
2023-03-29T03:34:23.363Z,1.10
2023-03-29T03:36:52.008Z,1.20
2023-03-29T03:39:19.211Z,0.90
2023-03-29T03:41:46.351Z,1.05
2023-03-29T03:44:13.537Z,0.90
2023-03-29T03:46:40.655Z,0.98
2023-03-29T03:49:07.806Z,0.85
2023-03-29T03:51:34.957Z,1.00
2023-03-29T03:54:02.211Z,0.80
2023-03-29T03:56:30.248Z,1.58
2023-03-29T03:58:57.644Z,0.80
2023-03-29T04:01:24.810Z,0.93
2023-03-29T04:03:51.976Z,0.90
2023-03-29T04:06:19.158Z,0.93
2023-03-29T04:08:48.243Z,1.10
2023-03-29T04:11:16.181Z,1.10
2023-03-29T04:13:43.367Z,0.90
2023-03-29T04:16:10.626Z,0.80
2023-03-29T04:18:37.757Z,0.85
2023-03-29T04:21:05.269Z,1.05
2023-03-29T04:23:32.379Z,0.85
2023-03-29T04:25:59.705Z,0.90
2023-03-29T04:28:26.828Z,1.10
2023-03-29T04:30:53.945Z,1.10
2023-03-29T04:33:21.486Z,0.70
2023-03-29T04:35:48.638Z,0.85
2023-03-29T04:38:16.966Z,0.70
2023-03-29T04:40:44.387Z,0.90
2023-03-29T04:43:11.483Z,0.90
2023-03-29T04:45:38.517Z,0.98
2023-03-29T04:48:05.991Z,0.73
2023-03-29T04:50:33.385Z,1.05
2023-03-29T04:53:00.647Z,0.93
2023-03-29T04:55:27.774Z,1.00
2023-03-29T04:57:55.939Z,1.00
2023-03-29T05:00:27.453Z,1.10
2023-03-29T05:02:55.252Z,0.90
2023-03-29T05:05:22.963Z,1.00
2023-03-29T05:07:50.978Z,1.10
2023-03-29T05:10:18.534Z,1.10
2023-03-29T05:12:45.681Z,0.85
2023-03-29T05:15:12.751Z,1.00
2023-03-29T05:17:39.788Z,0.90
2023-03-29T05:20:10.311Z,1.10
2023-03-29T05:22:38.539Z,1.10
2023-03-29T05:25:06.939Z,0.90
2023-03-29T05:27:34.825Z,0.90
2023-03-29T05:30:02.236Z,1.00
2023-03-29T05:32:30.252Z,0.80
2023-03-29T05:34:57.425Z,0.95
2023-03-29T05:37:24.456Z,1.05
2023-03-29T05:39:51.491Z,0.90
2023-03-29T05:42:22.654Z,0.85
2023-03-29T05:44:50.700Z,0.90
2023-03-29T05:47:19.158Z,0.80
2023-03-29T05:49:46.917Z,1.10
2023-03-29T05:52:14.756Z,0.80
2023-03-29T05:54:42.498Z,0.90
2023-03-29T05:57:10.062Z,0.90
2023-03-29T05:59:37.311Z,0.80
2023-03-29T06:02:05.081Z,0.98
2023-03-29T06:04:33.874Z,0.80
2023-03-29T06:07:02.347Z,1.25
2023-03-29T06:09:29.390Z,1.00
2023-03-29T06:11:58.039Z,1.05
2023-03-29T06:14:25.283Z,1.20
2023-03-29T06:16:52.389Z,0.73
2023-03-29T06:19:19.692Z,0.90
2023-03-29T06:21:46.700Z,0.73
2023-03-29T06:24:13.835Z,0.75
2023-03-29T06:26:41.541Z,1.00
2023-03-29T06:29:08.711Z,0.80
2023-03-29T06:31:36.871Z,1.33
2023-03-29T06:34:04.905Z,0.93
2023-03-29T06:36:34.636Z,1.35
2023-03-29T06:39:02.406Z,1.40
2023-03-29T06:41:29.394Z,1.20
2023-03-29T06:43:56.500Z,0.95
2023-03-29T06:46:24.229Z,0.98
2023-03-29T06:48:51.814Z,1.20
2023-03-29T06:51:20.606Z,1.25
2023-03-29T06:53:49.804Z,1.20
2023-03-29T06:56:17.818Z,1.40
2023-03-29T06:58:45.267Z,1.38
2023-03-29T07:01:13.033Z,1.20
2023-03-29T07:03:41.479Z,1.05
2023-03-29T07:06:12.594Z,0.98
2023-03-29T07:08:47.695Z,0.98
2023-03-29T07:11:16.586Z,0.80
2023-03-29T07:13:44.132Z,0.73
2023-03-29T07:16:15.616Z,0.90
2023-03-29T07:18:44.313Z,0.85
2023-03-29T07:21:12.972Z,0.88
2023-03-29T07:23:41.068Z,0.95
2023-03-29T07:26:09.133Z,0.88
2023-03-29T07:28:37.741Z,1.05
2023-03-29T07:31:07.174Z,1.20
2023-03-29T07:33:35.485Z,1.60
2023-03-29T07:36:03.663Z,1.30
2023-03-29T07:38:31.782Z,1.55
2023-03-29T07:40:59.731Z,1.48
2023-03-29T07:43:26.952Z,0.90
2023-03-29T07:45:54.251Z,0.90
2023-03-29T07:48:21.453Z,1.40
2023-03-29T07:50:48.482Z,1.50
2023-03-29T07:53:16.205Z,1.42
2023-03-29T07:55:47.819Z,2.08
2023-03-29T07:58:15.736Z,1.90
2023-03-29T08:00:45.902Z,1.73
2023-03-29T08:03:13.436Z,1.52
2023-03-29T08:05:41.899Z,1.67
2023-03-29T08:08:10.152Z,1.70
2023-03-29T08:10:39.698Z,1.60
2023-03-29T08:13:10.137Z,1.52
2023-03-29T08:15:39.557Z,2.28
2023-03-29T08:18:08.101Z,2.72
2023-03-29T08:20:35.274Z,3.80
2023-03-29T08:23:02.545Z,2.20
2023-03-29T08:25:30.237Z,1.92
2023-03-29T08:27:57.506Z,1.67
2023-03-29T08:30:25.008Z,1.80
2023-03-29T08:32:55.139Z,1.65
2023-03-29T08:35:22.854Z,1.60
2023-03-29T08:37:50.078Z,1.50
2023-03-29T08:40:22.601Z,2.40
2023-03-29T08:42:58.383Z,2.40
2023-03-29T08:45:39.321Z,3.22
2023-03-29T08:48:25.834Z,2.70
2023-03-29T08:51:08.622Z,3.17
2023-03-29T08:53:47.108Z,3.78
2023-03-29T08:56:19.771Z,5.70
2023-03-29T08:58:48.318Z,6.20
2023-03-29T09:01:15.588Z,6.20
2023-03-29T09:03:50.324Z,5.38
2023-03-29T09:06:20.649Z,4.72
2023-03-29T09:08:50.702Z,5.13
2023-03-29T09:11:44.866Z,9.70
2023-03-29T09:14:33.855Z,10.25
2023-03-29T09:17:32.922Z,7.97
2023-03-29T09:20:21.666Z,6.20
2023-03-29T09:22:51.717Z,7.18
2023-03-29T09:25:27.007Z,9.10
2023-03-29T09:28:17.809Z,12.30
2023-03-29T09:31:10.677Z,13.68
2023-03-29T09:33:45.203Z,13.68
2023-03-29T09:36:17.862Z,19.40
2023-03-29T09:38:49.301Z,17.98
2023-03-29T09:41:28.215Z,17.20
2023-03-29T09:43:57.973Z,12.70
2023-03-29T09:46:49.139Z,11.73
2023-03-29T09:49:22.281Z,10.07
2023-03-29T09:51:50.858Z,11.05
2023-03-29T09:54:17.987Z,10.70
2023-03-29T09:56:45.083Z,12.70
2023-03-29T09:59:12.884Z,14.48
2023-03-29T10:01:45.464Z,13.70
2023-03-29T10:04:14.145Z,14.52
2023-03-29T10:06:49.627Z,12.50
2023-03-29T10:09:23.780Z,13.32
2023-03-29T10:11:57.349Z,13.18
2023-03-29T10:14:35.916Z,13.13
2023-03-29T10:17:06.767Z,11.77
2023-03-29T10:19:35.876Z,11.13
2023-03-29T10:22:07.946Z,10.82
2023-03-29T10:24:35.096Z,7.25
2023-03-29T10:27:04.560Z,6.45
2023-03-29T10:29:42.553Z,5.10
2023-03-29T10:32:38.007Z,4.85
2023-03-29T10:35:08.031Z,3.45
2023-03-29T10:37:35.100Z,3.47
2023-03-29T10:40:02.412Z,3.45
2023-03-29T10:42:29.488Z,6.68
2023-03-29T10:44:58.740Z,10.20
2023-03-29T10:47:27.081Z,13.10
2023-03-29T10:49:59.011Z,10.32
2023-03-29T10:52:26.302Z,8.02
2023-03-29T10:54:56.783Z,7.65
2023-03-29T10:57:38.040Z,7.68
2023-03-29T11:00:23.952Z,6.65
2023-03-29T11:03:17.114Z,5.30
2023-03-29T11:05:54.375Z,8.13
2023-03-29T11:08:43.360Z,4.60
2023-03-29T11:11:35.333Z,3.33
2023-03-29T11:14:13.793Z,4.47
2023-03-29T11:16:51.470Z,9.82
2023-03-29T11:19:49.167Z,24.05
2023-03-29T11:22:42.816Z,25.10
2023-03-29T11:25:29.610Z,17.75
2023-03-29T11:28:21.723Z,18.35
2023-03-29T11:31:05.863Z,14.80
2023-03-29T11:33:56.559Z,12.77
2023-03-29T11:36:42.090Z,6.47
2023-03-29T11:39:14.845Z,5.60
2023-03-29T11:41:48.821Z,4.83
2023-03-29T11:44:24.428Z,6.38
2023-03-29T11:46:57.227Z,7.85
2023-03-29T11:49:34.546Z,9.40
2023-03-29T11:52:17.816Z,10.13
2023-03-29T11:55:04.058Z,14.15
2023-03-29T11:57:59.131Z,21.23
2023-03-29T12:00:41.227Z,15.32
2023-03-29T12:03:55.565Z,6.30
2023-03-29T12:06:32.176Z,5.40
2023-03-29T12:09:23.621Z,5.45
2023-03-29T12:12:20.676Z,4.65
2023-03-29T12:14:56.766Z,4.45
2023-03-29T12:17:31.439Z,4.10
2023-03-29T12:20:04.765Z,4.93
2023-03-29T12:22:32.945Z,5.57
2023-03-29T12:25:03.554Z,8.60
2023-03-29T12:27:37.723Z,6.20
2023-03-29T12:30:17.264Z,7.88
2023-03-29T12:32:59.354Z,12.63
2023-03-29T12:35:52.880Z,14.93
2023-03-29T12:38:23.144Z,19.55
2023-03-29T12:41:00.620Z,19.80
2023-03-29T12:43:49.018Z,18.40
2023-03-29T12:46:23.500Z,17.67
2023-03-29T12:48:57.426Z,12.23
2023-03-29T12:51:37.243Z,13.23
2023-03-29T12:54:22.039Z,12.57
2023-03-29T12:56:52.396Z,14.63
2023-03-29T12:59:37.977Z,17.77
2023-03-29T13:02:14.390Z,16.52
2023-03-29T13:04:44.634Z,16.25
2023-03-29T13:07:24.177Z,14.52
2023-03-29T13:09:56.396Z,14.15
2023-03-29T13:12:43.137Z,15.35
2023-03-29T13:15:19.202Z,14.07
2023-03-29T13:18:03.080Z,13.98
2023-03-29T13:23:36.640Z,7.47
2023-03-29T13:26:47.439Z,7.95
2023-03-29T13:29:43.622Z,7.53
2023-03-29T13:32:41.652Z,7.88
2023-03-29T13:35:31.154Z,6.22
2023-03-29T13:38:15.500Z,7.45
2023-03-29T13:40:57.047Z,7.35
2023-03-29T13:43:34.038Z,7.50
2023-03-29T13:46:01.360Z,8.57
2023-03-29T13:48:37.902Z,6.90
2023-03-29T13:51:40.285Z,8.00
2023-03-29T13:54:24.422Z,9.68
2023-03-29T13:57:06.958Z,6.90
2023-03-29T13:59:45.524Z,5.32
2023-03-29T14:02:25.637Z,3.88
2023-03-29T14:04:53.787Z,4.88
2023-03-29T14:07:26.602Z,3.33
2023-03-29T14:09:55.837Z,4.68
2023-03-29T14:12:23.098Z,3.00
2023-03-29T14:14:58.876Z,3.78
2023-03-29T14:17:27.359Z,4.60
2023-03-29T14:19:58.821Z,4.47
2023-03-29T14:22:31.444Z,4.35
2023-03-29T14:25:03.088Z,3.30
2023-03-29T14:27:32.125Z,3.97
2023-03-29T14:29:59.239Z,3.33
2023-03-29T14:32:31.930Z,3.50
2023-03-29T14:35:00.868Z,3.60
2023-03-29T14:37:29.236Z,3.97
2023-03-29T14:39:59.178Z,4.20
2023-03-29T14:42:28.269Z,3.80
2023-03-29T14:45:04.655Z,3.88
2023-03-29T14:47:33.952Z,4.75
2023-03-29T14:50:02.073Z,3.30
2023-03-29T14:52:30.835Z,2.65
2023-03-29T14:55:01.220Z,3.67
2023-03-29T14:57:34.695Z,3.13
2023-03-29T15:00:13.634Z,4.47
2023-03-29T15:03:15.506Z,3.75
2023-03-29T15:06:04.487Z,4.40
2023-03-29T15:08:38.715Z,4.43
2023-03-29T15:11:16.940Z,4.30
2023-03-29T15:13:44.702Z,4.32
2023-03-29T15:16:19.603Z,4.35
2023-03-29T15:18:49.929Z,4.70
2023-03-29T15:21:20.061Z,3.22
2023-03-29T15:23:52.120Z,4.30
2023-03-29T15:26:26.536Z,4.22
2023-03-29T15:29:03.222Z,5.45
2023-03-29T15:31:35.776Z,5.05
2023-03-29T15:34:06.313Z,4.40
2023-03-29T15:36:38.884Z,5.23
2023-03-29T15:39:06.156Z,3.83
2023-03-29T15:41:33.134Z,4.60
2023-03-29T15:44:00.258Z,3.70
2023-03-29T15:46:27.621Z,4.35
2023-03-29T15:48:54.661Z,3.92
2023-03-29T15:51:21.917Z,3.50
2023-03-29T15:53:48.995Z,4.13
2023-03-29T15:56:19.159Z,3.75
2023-03-29T15:58:47.883Z,3.42
2023-03-29T16:01:37.658Z,3.53
2023-03-29T16:04:08.298Z,4.10
2023-03-29T16:06:36.289Z,4.25
2023-03-29T16:09:04.661Z,4.28
2023-03-29T16:11:31.776Z,4.57
2023-03-29T16:13:59.319Z,5.63
2023-03-29T16:16:26.638Z,4.65
2023-03-29T16:18:53.791Z,4.50
2023-03-29T16:21:22.543Z,5.18
2023-03-29T16:23:49.619Z,6.90
2023-03-29T16:26:17.877Z,6.95
2023-03-29T16:28:45.200Z,6.10
2023-03-29T16:31:13.398Z,7.22
2023-03-29T16:33:41.957Z,5.32
2023-03-29T16:36:10.948Z,5.35
2023-03-29T16:38:38.635Z,5.43
2023-03-29T16:41:06.188Z,5.78
2023-03-29T16:43:33.307Z,5.88
2023-03-29T16:46:00.614Z,5.15
2023-03-29T16:48:27.921Z,7.18
2023-03-29T16:50:55.153Z,7.65
2023-03-29T16:53:23.416Z,7.70
2023-03-29T16:55:51.015Z,6.63
2023-03-29T16:58:18.136Z,6.45
2023-03-29T17:00:47.999Z,5.38
2023-03-29T17:03:17.110Z,7.47
2023-03-29T17:05:52.213Z,8.00
2023-03-29T17:08:20.653Z,8.95
2023-03-29T17:10:52.998Z,7.47
2023-03-29T17:13:21.566Z,7.32
2023-03-29T17:15:52.349Z,6.70
2023-03-29T17:18:24.756Z,7.32
2023-03-29T17:20:53.048Z,7.00
2023-03-29T17:23:20.130Z,5.90
2023-03-29T17:25:47.325Z,5.53
2023-03-29T17:28:14.468Z,6.18
2023-03-29T17:30:41.883Z,5.80
2023-03-29T17:33:09.026Z,6.55
2023-03-29T17:35:36.247Z,6.93
2023-03-29T17:38:03.284Z,6.80
2023-03-29T17:40:30.369Z,10.48
2023-03-29T17:42:57.668Z,9.05
2023-03-29T17:45:24.694Z,8.63
2023-03-29T17:47:51.786Z,8.65
2023-03-29T17:50:18.981Z,7.30
2023-03-29T17:52:46.109Z,6.43
2023-03-29T17:55:16.492Z,5.55
2023-03-29T17:57:44.374Z,6.18
2023-03-29T18:00:14.085Z,5.40
2023-03-29T18:02:41.775Z,4.85
2023-03-29T18:05:09.764Z,6.25
2023-03-29T18:07:37.545Z,6.82
2023-03-29T18:10:05.652Z,5.97
2023-03-29T18:12:32.682Z,6.03
2023-03-29T18:14:59.828Z,5.35
2023-03-29T18:17:27.777Z,4.20
2023-03-29T18:19:54.994Z,4.13
2023-03-29T18:22:24.238Z,4.70
2023-03-29T18:24:51.432Z,4.55
2023-03-29T18:27:19.086Z,3.17
2023-03-29T18:29:46.217Z,4.40
2023-03-29T18:32:14.657Z,5.25
2023-03-29T18:34:41.750Z,4.53
2023-03-29T18:37:14.795Z,4.28
2023-03-29T18:39:42.075Z,5.40
2023-03-29T18:42:11.609Z,4.15
2023-03-29T18:44:40.631Z,6.28
2023-03-29T18:47:08.618Z,6.60
2023-03-29T18:49:36.971Z,6.35
2023-03-29T18:52:05.163Z,6.22
2023-03-29T18:54:32.343Z,10.05
2023-03-29T18:57:00.633Z,9.75
2023-03-29T18:59:28.065Z,7.72
2023-03-29T19:01:55.198Z,10.85
2023-03-29T19:04:23.960Z,10.07
2023-03-29T19:06:52.145Z,11.05
2023-03-29T19:09:19.248Z,10.10
2023-03-29T19:11:48.242Z,8.60
2023-03-29T19:14:17.539Z,9.93
2023-03-29T19:16:45.107Z,12.90
2023-03-29T19:19:13.019Z,7.22
2023-03-29T19:21:40.063Z,8.60
2023-03-29T19:24:08.371Z,9.32
2023-03-29T19:26:35.727Z,12.07
2023-03-29T19:29:02.824Z,8.50
2023-03-29T19:31:30.126Z,8.02
2023-03-29T19:33:57.294Z,6.22
2023-03-29T19:36:24.384Z,4.05
2023-03-29T19:38:51.911Z,4.07
2023-03-29T19:41:18.954Z,4.07
2023-03-29T19:43:46.098Z,5.85
2023-03-29T19:46:13.641Z,7.82
2023-03-29T19:48:40.924Z,11.88
2023-03-29T19:51:08.427Z,7.07
2023-03-29T19:53:38.527Z,7.10
2023-03-29T19:56:07.954Z,8.50
2023-03-29T19:58:35.173Z,9.43
2023-03-29T20:01:02.532Z,11.60
2023-03-29T20:03:30.134Z,5.55
2023-03-29T20:05:57.476Z,10.80
2023-03-29T20:08:25.095Z,10.07
2023-03-29T20:11:00.036Z,8.95
2023-03-29T20:13:37.350Z,8.80
2023-03-29T20:16:10.215Z,8.52
2023-03-29T20:18:40.728Z,7.20
2023-03-29T20:21:09.047Z,6.47
2023-03-29T20:23:36.674Z,6.50
2023-03-29T20:26:03.757Z,6.93
2023-03-29T20:28:31.653Z,18.98
2023-03-29T20:31:04.086Z,14.52
2023-03-29T20:33:31.691Z,14.18
2023-03-29T20:35:59.361Z,12.13
2023-03-29T20:38:26.575Z,13.13
2023-03-29T20:40:54.270Z,12.68
2023-03-29T20:43:21.641Z,9.68
2023-03-29T20:45:53.504Z,10.13
2023-03-29T20:48:23.568Z,8.40
2023-03-29T20:50:51.756Z,25.30
2023-03-29T20:53:20.808Z,21.48
2023-03-29T20:55:48.253Z,21.02
2023-03-29T20:58:16.183Z,17.17
2023-03-29T21:00:43.865Z,14.00
2023-03-29T21:03:11.505Z,12.48
2023-03-29T21:05:39.123Z,15.23
2023-03-29T21:08:06.364Z,14.50
2023-03-29T21:10:33.611Z,11.93
2023-03-29T21:13:02.864Z,15.90
2023-03-29T21:15:31.226Z,12.88
2023-03-29T21:17:58.748Z,12.57
2023-03-29T21:20:26.197Z,12.95
2023-03-29T21:22:53.257Z,13.77
2023-03-29T21:25:20.458Z,10.88
2023-03-29T21:27:47.601Z,13.57
2023-03-29T21:30:14.752Z,15.70
2023-03-29T21:32:41.954Z,15.55
2023-03-29T21:35:09.973Z,10.63
2023-03-29T21:37:37.073Z,5.20
2023-03-29T21:40:10.823Z,6.25
2023-03-29T21:42:38.106Z,5.45
2023-03-29T21:45:05.562Z,5.95
2023-03-29T21:47:32.694Z,4.00
2023-03-29T21:49:59.714Z,3.97
2023-03-29T21:52:26.728Z,5.70
2023-03-29T21:54:53.882Z,6.03
2023-03-29T21:57:21.022Z,5.40
2023-03-29T21:59:48.095Z,5.78
2023-03-29T22:02:15.266Z,5.20
2023-03-29T22:04:42.311Z,11.93
2023-03-29T22:07:10.954Z,9.27
2023-03-29T22:09:38.231Z,12.25
2023-03-29T22:12:05.461Z,8.70
2023-03-29T22:14:35.407Z,6.40
2023-03-29T22:17:09.769Z,5.72
2023-03-29T22:19:40.264Z,4.75
2023-03-29T22:22:14.098Z,5.50
2023-03-29T22:24:42.356Z,5.68
2023-03-29T22:27:10.756Z,6.43
2023-03-29T22:29:37.906Z,6.07
2023-03-29T22:32:05.152Z,6.00
2023-03-29T22:34:32.601Z,5.35
2023-03-29T22:36:59.672Z,4.95
2023-03-29T22:39:27.096Z,4.70
2023-03-29T22:41:54.588Z,3.90
2023-03-29T22:44:36.014Z,3.63
2023-03-29T22:47:03.132Z,3.97
2023-03-29T22:49:30.153Z,3.67
2023-03-29T22:51:57.343Z,4.35
2023-03-29T22:54:24.460Z,4.15
2023-03-29T22:56:51.888Z,4.07
2023-03-29T22:59:19.202Z,3.75
2023-03-29T23:01:46.341Z,3.72
2023-03-29T23:04:13.577Z,3.55
2023-03-29T23:06:41.198Z,3.33
2023-03-29T23:09:09.752Z,3.10
2023-03-29T23:11:37.296Z,3.60
2023-03-29T23:14:04.359Z,3.30
2023-03-29T23:16:32.380Z,4.10
2023-03-29T23:18:59.656Z,3.67
2023-03-29T23:21:28.188Z,3.55
2023-03-29T23:23:55.530Z,3.95
2023-03-29T23:26:23.400Z,3.10
2023-03-29T23:28:51.751Z,3.08
2023-03-29T23:31:18.988Z,2.67
2023-03-29T23:33:46.297Z,2.63
2023-03-29T23:36:19.129Z,2.22
2023-03-29T23:38:47.743Z,2.53
2023-03-29T23:41:16.937Z,2.25
2023-03-29T23:43:47.329Z,2.05
2023-03-29T23:46:17.478Z,1.92
2023-03-29T23:48:49.369Z,2.70
2023-03-29T23:51:19.139Z,2.70
2023-03-29T23:53:46.816Z,2.55
2023-03-29T23:56:13.893Z,2.33
2023-03-29T23:58:41.655Z,2.50
